createdAt,value
2022-10-29T00:02:23.441Z,15.872803
2022-10-29T00:05:48.671Z,15.892944
2022-10-29T00:09:13.940Z,15.923157
2022-10-29T00:12:39.209Z,15.943298
2022-10-29T00:16:04.466Z,15.96344
2022-10-29T00:19:29.756Z,15.96344
2022-10-29T00:22:55.327Z,15.973511
2022-10-29T00:26:20.293Z,16.013794
2022-10-29T00:29:45.631Z,16.003723
2022-10-29T00:33:10.909Z,15.933228
2022-10-29T00:36:36.177Z,15.943298
2022-10-29T00:40:01.444Z,15.892944
2022-10-29T00:43:26.702Z,15.862732
2022-10-29T00:46:51.995Z,15.83252
2022-10-29T00:50:17.226Z,15.741882
2022-10-29T00:53:42.495Z,15.691528
2022-10-29T00:57:07.729Z,15.671387
2022-10-29T01:00:33.028Z,15.641174
2022-10-29T01:03:58.322Z,15.621033
2022-10-29T01:07:23.536Z,15.570679
2022-10-29T01:10:48.758Z,15.540466
2022-10-29T01:14:14.030Z,15.530396
2022-10-29T01:17:39.308Z,15.540466
2022-10-29T01:21:04.600Z,15.59082
2022-10-29T01:24:29.861Z,15.641174
2022-10-29T01:27:55.334Z,15.641174
2022-10-29T01:31:20.343Z,15.671387
2022-10-29T01:34:45.600Z,15.681458
2022-10-29T01:38:10.911Z,15.671387
2022-10-29T01:41:36.157Z,15.691528
2022-10-29T01:45:01.424Z,15.671387
2022-10-29T01:48:27.776Z,15.681458
2022-10-29T01:51:51.924Z,15.651245
2022-10-29T01:55:17.192Z,15.621033
2022-10-29T01:58:42.465Z,15.570679
2022-10-29T02:02:07.761Z,15.530396
2022-10-29T02:05:32.985Z,15.530396
2022-10-29T02:08:58.287Z,15.490112
2022-10-29T02:12:23.557Z,15.409546
2022-10-29T02:15:48.816Z,15.429688
2022-10-29T02:19:14.099Z,15.359192
2022-10-29T02:22:39.354Z,15.389404
2022-10-29T02:26:04.613Z,15.389404
2022-10-29T02:29:29.888Z,15.359192
2022-10-29T02:32:55.281Z,15.389404
2022-10-29T02:36:20.390Z,15.318909
2022-10-29T02:39:45.590Z,15.278625
2022-10-29T02:43:10.865Z,15.198059
2022-10-29T02:46:36.067Z,15.187988
2022-10-29T02:50:01.312Z,15.228271
2022-10-29T02:53:26.545Z,15.157776
2022-10-29T02:56:51.804Z,15.157776
2022-10-29T03:00:17.078Z,15.157776
2022-10-29T03:03:42.365Z,15.187988
2022-10-29T03:07:07.613Z,15.157776
2022-10-29T03:10:32.911Z,15.026855
2022-10-29T03:13:58.189Z,14.936218
2022-10-29T03:17:23.474Z,14.885864
2022-10-29T03:20:48.739Z,14.83551
2022-10-29T03:24:13.984Z,14.875793
2022-10-29T03:27:39.269Z,14.83551
2022-10-29T03:31:04.540Z,14.765015
2022-10-29T03:34:29.808Z,14.734802
2022-10-29T03:37:55.098Z,14.724731
2022-10-29T03:41:20.311Z,14.644165
2022-10-29T03:44:45.523Z,14.613953
2022-10-29T03:48:10.741Z,14.603882
2022-10-29T03:51:36.018Z,14.613953
2022-10-29T03:55:01.320Z,14.573669
2022-10-29T03:58:26.551Z,14.503174
2022-10-29T04:01:51.900Z,14.402466
2022-10-29T04:05:17.025Z,14.372253
2022-10-29T04:08:42.274Z,14.362183
2022-10-29T04:12:07.539Z,14.291687
2022-10-29T04:15:32.791Z,14.241333
2022-10-29T04:18:58.904Z,14.170837
2022-10-29T04:29:14.711Z,13.94928
2022-10-29T04:32:39.945Z,13.919067
2022-10-29T04:36:05.169Z,13.868713
2022-10-29T04:39:30.421Z,13.788147
2022-10-29T04:42:55.965Z,13.838501
2022-10-29T04:46:20.923Z,13.838501
2022-10-29T04:49:46.172Z,13.818359
2022-10-29T04:53:11.446Z,13.778076
2022-10-29T04:56:36.820Z,13.727722
2022-10-29T05:00:01.948Z,13.667297
2022-10-29T05:03:27.280Z,13.596802
2022-10-29T05:06:52.469Z,13.616943
2022-10-29T05:10:17.708Z,13.667297
2022-10-29T05:13:42.992Z,13.768005
2022-10-29T05:20:33.531Z,13.989563
2022-10-29T05:23:58.803Z,14.019775
2022-10-29T05:27:24.049Z,14.070129
2022-10-29T05:30:49.279Z,14.150696
2022-10-29T05:34:14.498Z,14.20105
2022-10-29T05:37:39.773Z,14.221191
2022-10-29T05:41:05.102Z,14.251404
2022-10-29T05:44:30.365Z,14.271545
2022-10-29T05:47:55.716Z,14.291687
2022-10-29T05:51:20.914Z,14.251404
2022-10-29T05:54:46.199Z,14.281616
2022-10-29T05:58:11.565Z,14.291687
2022-10-29T06:01:36.918Z,14.352112
2022-10-29T06:05:02.011Z,14.372253
2022-10-29T06:08:27.269Z,14.362183
2022-10-29T06:11:52.583Z,14.362183
2022-10-29T06:15:17.804Z,14.372253
2022-10-29T06:18:43.047Z,14.33197
2022-10-29T06:22:08.362Z,14.321899
2022-10-29T06:25:33.638Z,14.271545
2022-10-29T06:28:58.898Z,14.251404
2022-10-29T06:32:24.085Z,14.20105
2022-10-29T06:35:49.327Z,14.029846
2022-10-29T06:39:14.547Z,13.94928
2022-10-29T06:42:39.771Z,13.878784
2022-10-29T06:46:05.056Z,13.878784
2022-10-29T06:49:30.280Z,13.878784
2022-10-29T06:52:55.588Z,13.888855
2022-10-29T06:56:20.822Z,13.969421
2022-10-29T06:59:46.005Z,14.070129
2022-10-29T07:03:11.253Z,14.180908
2022-10-29T07:06:36.446Z,14.221191
2022-10-29T07:10:01.706Z,14.352112
2022-10-29T07:13:26.951Z,14.402466
2022-10-29T07:16:52.223Z,14.462891
2022-10-29T07:20:17.534Z,14.543457
2022-10-29T07:23:42.753Z,14.624023
2022-10-29T07:27:08.043Z,14.654236
2022-10-29T07:30:33.202Z,14.684448
2022-10-29T07:33:58.450Z,14.70459
2022-10-29T07:37:23.738Z,14.734802
2022-10-29T07:40:48.990Z,14.775085
2022-10-29T07:44:14.193Z,14.83551
2022-10-29T07:47:39.467Z,14.936218
2022-10-29T07:51:04.726Z,15.016785
2022-10-29T07:54:30.023Z,15.107422
2022-10-29T07:57:55.505Z,15.167847
2022-10-29T08:01:20.625Z,15.268555
2022-10-29T08:04:45.820Z,15.379333
2022-10-29T08:08:11.066Z,15.469971
2022-10-29T08:11:36.402Z,15.59082
2022-10-29T08:15:01.628Z,15.681458
2022-10-29T08:18:26.866Z,15.762024
2022-10-29T08:21:52.095Z,15.872803
2022-10-29T08:25:17.370Z,16.003723
2022-10-29T08:28:42.634Z,16.114502
2022-10-29T08:32:07.878Z,16.235352
2022-10-29T08:35:33.129Z,16.295776
2022-10-29T08:38:58.388Z,16.325989
2022-10-29T08:42:23.625Z,16.33606
2022-10-29T08:45:48.899Z,16.34613
2022-10-29T08:49:14.151Z,16.34613
2022-10-29T08:52:44.413Z,16.34613
2022-10-29T08:56:04.672Z,16.34613
2022-10-29T08:59:29.972Z,16.406555
2022-10-29T09:02:55.508Z,16.416626
2022-10-29T09:06:20.510Z,16.487122
2022-10-29T09:09:45.783Z,16.517334
2022-10-29T09:13:11.040Z,16.567688
2022-10-29T09:16:36.354Z,16.577759
2022-10-29T09:20:01.617Z,16.527405
2022-10-29T09:23:26.864Z,16.497192
2022-10-29T09:26:52.123Z,16.497192
2022-10-29T09:30:17.399Z,16.517334
2022-10-29T09:33:42.642Z,16.497192
2022-10-29T09:37:07.901Z,16.517334
2022-10-29T09:40:33.119Z,16.557617
2022-10-29T09:43:58.376Z,16.5979
2022-10-29T09:47:23.648Z,16.678467
2022-10-29T09:50:48.916Z,16.728821
2022-10-29T09:54:14.233Z,16.819458
2022-10-29T09:57:39.475Z,16.889954
2022-10-29T10:01:04.678Z,16.97052
2022-10-29T10:04:30.125Z,17.041016
2022-10-29T10:07:55.619Z,17.151794
2022-10-29T10:11:20.735Z,17.232361
2022-10-29T10:14:46.028Z,17.363281
2022-10-29T10:18:11.319Z,17.463989
2022-10-29T10:21:36.694Z,17.554626
2022-10-29T10:25:01.980Z,17.584839
2022-10-29T10:28:27.325Z,17.584839
2022-10-29T10:31:52.579Z,17.59491
2022-10-29T10:35:17.865Z,17.625122
2022-10-29T10:38:43.151Z,17.655334
2022-10-29T10:42:08.407Z,17.675476
2022-10-29T10:45:33.700Z,17.675476
2022-10-29T10:48:59.014Z,17.695618
2022-10-29T10:52:24.324Z,17.705688
2022-10-29T10:55:49.601Z,17.715759
2022-10-29T10:59:14.887Z,17.705688
2022-10-29T11:02:40.212Z,17.745972
2022-10-29T11:06:05.453Z,17.745972
2022-10-29T11:09:30.744Z,17.715759
2022-10-29T11:12:56.041Z,17.695618
2022-10-29T11:16:21.316Z,17.675476
2022-10-29T11:19:46.625Z,17.59491
2022-10-29T11:23:11.889Z,17.584839
2022-10-29T11:26:37.218Z,17.524414
2022-10-29T11:30:02.504Z,17.544556
2022-10-29T11:33:27.800Z,17.524414
2022-10-29T11:36:53.140Z,17.494202
2022-10-29T11:40:18.412Z,17.494202
2022-10-29T11:43:43.682Z,17.524414
2022-10-29T11:47:08.967Z,17.584839
2022-10-29T11:50:34.252Z,17.675476
2022-10-29T11:53:59.548Z,17.715759
2022-10-29T11:57:24.799Z,17.776184
2022-10-29T12:00:50.056Z,17.836609
2022-10-29T12:04:16.007Z,17.886963
2022-10-29T12:07:40.662Z,17.886963
2022-10-29T12:11:05.970Z,17.917175
2022-10-29T12:14:31.226Z,17.927246
2022-10-29T12:17:56.784Z,17.947388
2022-10-29T12:21:21.785Z,17.927246
2022-10-29T12:24:47.057Z,17.917175
2022-10-29T12:28:12.356Z,17.836609
2022-10-29T12:31:37.595Z,17.836609
2022-10-29T12:35:02.981Z,17.806396
2022-10-29T12:38:28.187Z,17.816467
2022-10-29T12:41:53.439Z,17.786255
2022-10-29T12:45:18.766Z,17.786255
2022-10-29T12:48:44.226Z,17.776184
2022-10-29T12:52:09.459Z,17.786255
2022-10-29T12:55:34.731Z,17.786255
2022-10-29T12:59:00.215Z,17.816467
2022-10-29T13:02:25.749Z,17.836609
2022-10-29T13:05:50.979Z,17.85675
2022-10-29T13:09:16.411Z,17.836609
2022-10-29T13:12:41.797Z,17.866821
2022-10-29T13:16:07.149Z,17.886963
2022-10-29T13:19:32.810Z,17.897034
2022-10-29T13:22:58.367Z,17.917175
2022-10-29T13:26:23.489Z,17.967529
2022-10-29T13:29:49.014Z,17.967529
2022-10-29T13:33:14.237Z,17.957458
2022-10-29T13:36:39.476Z,17.957458
2022-10-29T13:40:04.668Z,17.947388
2022-10-29T13:43:29.918Z,17.927246
2022-10-29T13:46:55.168Z,17.866821
2022-10-29T13:50:20.374Z,17.85675
2022-10-29T13:53:45.609Z,17.806396
2022-10-29T13:57:10.790Z,17.786255
2022-10-29T14:00:35.984Z,17.806396
2022-10-29T14:04:01.241Z,17.745972
2022-10-29T14:07:26.446Z,17.745972
2022-10-29T14:10:51.685Z,17.715759
2022-10-29T14:14:16.850Z,17.766113
2022-10-29T14:17:42.040Z,17.786255
2022-10-29T14:21:07.232Z,17.816467
2022-10-29T14:24:32.435Z,17.85675
2022-10-29T14:27:58.000Z,17.85675
2022-10-29T15:04:29.136Z,17.59491
2022-10-29T15:07:54.324Z,17.524414
2022-10-29T15:11:19.545Z,17.463989
2022-10-29T15:14:44.751Z,17.373352
2022-10-29T15:18:09.975Z,17.302856
2022-10-29T15:21:35.226Z,17.232361
2022-10-29T15:25:00.406Z,17.151794
2022-10-29T15:28:25.592Z,17.081299
2022-10-29T15:31:50.778Z,17.041016
2022-10-29T15:35:15.978Z,17.000732
2022-10-29T15:38:41.269Z,16.980591
2022-10-29T15:42:06.520Z,16.960449
2022-10-29T15:45:31.763Z,16.930237
2022-10-29T15:48:57.006Z,16.910095
2022-10-29T15:52:22.288Z,16.84967
2022-10-29T15:55:47.544Z,16.819458
2022-10-29T15:59:12.781Z,16.759033
2022-10-29T16:02:38.042Z,16.748962
2022-10-29T16:06:03.276Z,16.708679
2022-10-29T16:09:28.470Z,16.748962
2022-10-29T16:12:54.075Z,16.759033
2022-10-29T16:16:19.053Z,16.759033
2022-10-29T16:19:44.326Z,16.759033
2022-10-29T16:23:09.595Z,16.779175
2022-10-29T16:26:34.794Z,16.748962
2022-10-29T16:30:00.191Z,16.779175
2022-10-29T16:33:25.348Z,16.748962
2022-10-29T16:36:50.610Z,16.708679
2022-10-29T16:40:15.841Z,16.658325
2022-10-29T16:43:41.084Z,16.638184
2022-10-29T16:47:06.322Z,16.607971
2022-10-29T16:50:31.564Z,16.607971
2022-10-29T16:53:56.796Z,16.5979
2022-10-29T16:57:22.064Z,16.557617
2022-10-29T17:00:47.289Z,16.527405
2022-10-29T17:04:12.645Z,16.517334
2022-10-29T17:07:37.872Z,16.527405
2022-10-29T17:11:03.088Z,16.527405
2022-10-29T17:14:28.316Z,16.557617
2022-10-29T17:17:53.543Z,16.517334
2022-10-29T17:21:18.799Z,16.527405
2022-10-29T17:24:43.971Z,16.497192
2022-10-29T17:28:09.181Z,16.497192
2022-10-29T17:31:34.380Z,16.487122
2022-10-29T17:34:59.620Z,16.456909
2022-10-29T17:38:24.900Z,16.456909
2022-10-29T17:41:50.173Z,16.456909
2022-10-29T17:45:15.396Z,16.487122
2022-10-29T17:48:40.647Z,16.477051
2022-10-29T17:52:05.888Z,16.386414
2022-10-29T17:55:31.156Z,16.34613
2022-10-29T17:58:56.363Z,16.295776
2022-10-29T18:02:21.817Z,16.235352
2022-10-29T18:05:46.796Z,16.154785
2022-10-29T18:09:13.024Z,16.114502
2022-10-29T18:12:37.245Z,16.023865
2022-10-29T18:16:02.431Z,16.003723
2022-10-29T18:19:27.708Z,15.923157
2022-10-29T18:22:55.784Z,15.872803
2022-10-29T18:26:18.149Z,15.84259
2022-10-29T18:29:43.443Z,15.822449
2022-10-29T18:33:08.731Z,15.802307
2022-10-29T18:36:33.921Z,15.762024
2022-10-29T18:39:59.168Z,15.71167
2022-10-29T18:43:24.419Z,15.671387
2022-10-29T18:46:49.665Z,15.530396
2022-10-29T18:50:14.878Z,15.4599
2022-10-29T18:53:40.163Z,15.469971
2022-10-29T18:57:05.380Z,15.469971
2022-10-29T19:00:30.755Z,15.490112
2022-10-29T19:03:56.162Z,15.469971
2022-10-29T19:07:21.383Z,15.439758
2022-10-29T19:10:46.584Z,15.439758
2022-10-29T19:14:11.809Z,15.490112
2022-10-29T19:17:37.067Z,15.500183
2022-10-29T19:21:02.337Z,15.490112
2022-10-29T19:24:27.649Z,15.469971
2022-10-29T19:27:52.891Z,15.4599
2022-10-29T19:31:18.083Z,15.429688
2022-10-29T19:34:43.330Z,15.429688
2022-10-29T19:38:08.587Z,15.409546
2022-10-29T19:41:33.783Z,15.359192
2022-10-29T19:44:58.997Z,15.409546
2022-10-29T19:48:24.248Z,15.409546
2022-10-29T19:51:49.440Z,15.4599
2022-10-29T19:55:14.728Z,15.379333
2022-10-29T19:58:39.891Z,15.379333
2022-10-29T20:02:05.226Z,15.349121
2022-10-29T20:05:30.348Z,15.409546
2022-10-29T20:08:55.894Z,15.500183
2022-10-29T20:12:21.142Z,15.600891
2022-10-29T20:15:46.341Z,15.681458
2022-10-29T20:19:11.617Z,15.71167
2022-10-29T20:22:36.847Z,15.721741
2022-10-29T20:26:02.048Z,15.762024
2022-10-29T20:29:27.287Z,15.802307
2022-10-29T20:32:52.479Z,15.822449
2022-10-29T20:36:17.753Z,15.83252
2022-10-29T20:39:42.941Z,15.822449
2022-10-29T20:43:08.175Z,15.822449
2022-10-29T20:46:33.400Z,15.83252
2022-10-29T20:49:58.583Z,15.802307
2022-10-29T20:53:23.857Z,15.71167
2022-10-29T20:56:49.096Z,15.600891
2022-10-29T21:00:14.346Z,15.530396
2022-10-29T21:03:39.597Z,15.439758
2022-10-29T21:07:04.838Z,15.349121
2022-10-29T21:10:30.055Z,15.288696
2022-10-29T21:13:55.327Z,15.248413
2022-10-29T21:17:20.588Z,15.187988
2022-10-29T21:20:45.829Z,15.157776
2022-10-29T21:24:11.049Z,15.137634
2022-10-29T21:27:36.275Z,15.157776
2022-10-29T21:31:01.490Z,15.20813
2022-10-29T21:34:26.696Z,15.268555
2022-10-29T21:37:51.956Z,15.288696
2022-10-29T21:41:17.151Z,15.308838
2022-10-29T21:44:42.367Z,15.278625
2022-10-29T21:48:07.608Z,15.268555
2022-10-29T21:51:32.829Z,15.167847
2022-10-29T21:54:58.088Z,15.107422
2022-10-29T21:58:23.260Z,14.976501
2022-10-29T22:01:48.585Z,14.916077
2022-10-29T22:05:13.705Z,14.875793
2022-10-29T22:08:38.905Z,14.70459
2022-10-29T22:12:04.142Z,14.613953
2022-10-29T22:15:29.300Z,14.523315
2022-10-29T22:18:54.552Z,14.503174
2022-10-29T22:22:19.753Z,14.402466
2022-10-29T22:25:44.958Z,14.33197
2022-10-29T22:29:10.178Z,14.321899
2022-10-29T22:32:35.402Z,14.20105
2022-10-29T22:36:00.596Z,14.090271
2022-10-29T22:39:25.795Z,14.019775
2022-10-29T22:42:51.023Z,13.919067
2022-10-29T22:46:16.251Z,13.848572
2022-10-29T22:49:41.433Z,13.838501
2022-10-29T22:53:06.765Z,13.838501
2022-10-29T22:56:31.991Z,13.959351
2022-10-29T22:59:57.205Z,14.060059
2022-10-29T23:03:22.463Z,14.170837
2022-10-29T23:06:47.663Z,14.20105
2022-10-29T23:10:12.882Z,14.221191
2022-10-29T23:13:38.088Z,14.281616
2022-10-29T23:17:03.334Z,14.372253
2022-10-29T23:20:28.574Z,14.432678
2022-10-29T23:23:53.767Z,14.432678
2022-10-29T23:27:18.974Z,14.402466
2022-10-29T23:30:44.194Z,14.432678
2022-10-29T23:34:09.393Z,14.45282
2022-10-29T23:37:34.648Z,14.462891
2022-10-29T23:40:59.851Z,14.45282
2022-10-29T23:44:25.049Z,14.462891
2022-10-29T23:47:50.244Z,14.45282
2022-10-29T23:51:15.490Z,14.432678
2022-10-29T23:54:40.733Z,14.422607
2022-10-29T23:58:05.901Z,14.45282
